createdAt,value
2022-12-07T00:02:10.324Z,22.22
2022-12-07T00:04:37.095Z,22.34
2022-12-07T00:07:04.237Z,22.33
2022-12-07T00:09:31.025Z,22.05
2022-12-07T00:11:58.224Z,22.30
2022-12-07T00:14:25.784Z,22.72
2022-12-07T00:16:52.590Z,23.29
2022-12-07T00:19:19.567Z,23.02
2022-12-07T00:21:46.928Z,22.65
2022-12-07T00:24:18.632Z,23.56
2022-12-07T00:26:45.412Z,24.64
2022-12-07T00:29:12.459Z,24.57
2022-12-07T00:34:32.270Z,23.94
2022-12-07T00:37:00.955Z,25.06
2022-12-07T00:39:27.700Z,26.38
2022-12-07T00:41:55.392Z,26.38
2022-12-07T00:44:22.100Z,26.54
2022-12-07T00:46:49.096Z,26.53
2022-12-07T00:49:16.839Z,25.94
2022-12-07T00:51:43.695Z,26.52
2022-12-07T00:54:10.550Z,26.15
2022-12-07T00:56:37.278Z,25.92
2022-12-07T00:59:04.619Z,25.09
2022-12-07T01:01:31.862Z,25.70
2022-12-07T01:03:58.784Z,25.95
2022-12-07T01:09:41.572Z,24.99
2022-12-07T01:12:12.195Z,25.25
2022-12-07T01:14:41.893Z,26.10
2022-12-07T01:17:08.637Z,25.71
2022-12-07T01:19:36.109Z,26.34
2022-12-07T01:22:03.158Z,26.14
2022-12-07T01:24:31.804Z,26.30
2022-12-07T01:26:58.852Z,25.16
2022-12-07T01:29:25.587Z,25.16
2022-12-07T01:31:53.267Z,24.90
2022-12-07T01:34:20.868Z,25.34
2022-12-07T01:36:47.858Z,26.12
2022-12-07T01:39:14.642Z,26.94
2022-12-07T01:41:41.516Z,26.03
2022-12-07T01:44:08.388Z,25.28
2022-12-07T01:46:36.071Z,25.10
2022-12-07T01:49:03.408Z,25.59
2022-12-07T01:54:47.674Z,24.44
2022-12-07T01:57:15.435Z,25.67
2022-12-07T01:59:44.790Z,25.24
2022-12-07T02:02:15.156Z,24.33
2022-12-07T02:04:42.329Z,25.01
2022-12-07T02:07:09.176Z,25.70
2022-12-07T02:09:37.543Z,24.98
2022-12-07T02:12:04.585Z,24.85
2022-12-07T02:14:32.977Z,24.71
2022-12-07T02:20:09.265Z,24.37
2022-12-07T02:22:36.210Z,24.56
2022-12-07T02:25:03.056Z,24.19
2022-12-07T02:27:30.208Z,23.63
2022-12-07T02:29:57.072Z,24.23
2022-12-07T02:32:26.437Z,23.33
2022-12-07T02:34:54.037Z,22.62
2022-12-07T02:37:21.583Z,22.49
2022-12-07T02:39:48.399Z,22.74
2022-12-07T02:42:15.156Z,22.95
2022-12-07T02:44:42.106Z,22.61
2022-12-07T02:47:12.252Z,22.24
2022-12-07T02:49:41.002Z,21.90
2022-12-07T02:52:08.366Z,22.17
2022-12-07T02:54:35.356Z,21.69
2022-12-07T02:57:02.140Z,22.45
2022-12-07T02:59:28.982Z,22.69
2022-12-07T03:01:56.069Z,22.13
2022-12-07T03:04:26.460Z,22.04
2022-12-07T03:06:53.109Z,21.58
2022-12-07T03:09:20.085Z,21.28
2022-12-07T03:11:46.683Z,21.35
2022-12-07T03:14:15.290Z,21.27
2022-12-07T03:16:42.516Z,20.32
2022-12-07T03:19:09.317Z,21.18
2022-12-07T03:21:36.233Z,22.11
2022-12-07T03:24:03.076Z,21.41
2022-12-07T03:26:30.262Z,21.54
2022-12-07T03:28:56.818Z,21.09
2022-12-07T03:31:25.432Z,20.93
2022-12-07T03:33:52.415Z,21.03
2022-12-07T03:36:19.508Z,21.07
2022-12-07T03:38:46.529Z,20.91
2022-12-07T03:41:13.418Z,20.75
2022-12-07T03:43:40.872Z,21.09
2022-12-07T03:46:08.405Z,20.16
2022-12-07T03:48:35.297Z,20.72
2022-12-07T03:51:04.005Z,21.81
2022-12-07T03:53:30.788Z,22.27
2022-12-07T03:55:57.883Z,22.41
2022-12-07T03:58:24.931Z,23.33
2022-12-07T04:00:54.248Z,22.82
2022-12-07T04:03:21.359Z,23.13
2022-12-07T04:05:48.536Z,22.69
2022-12-07T04:08:15.850Z,23.39
2022-12-07T04:10:44.172Z,22.79
2022-12-07T04:13:30.840Z,23.91
2022-12-07T04:16:15.536Z,23.19
2022-12-07T04:18:42.449Z,22.33
2022-12-07T04:21:11.578Z,22.22
2022-12-07T04:23:49.240Z,22.37
2022-12-07T04:26:15.901Z,22.53
2022-12-07T04:28:42.715Z,23.17
2022-12-07T04:31:09.478Z,23.20
2022-12-07T04:33:36.232Z,22.94
2022-12-07T04:36:02.992Z,22.47
2022-12-07T04:38:29.684Z,22.19
2022-12-07T04:40:57.384Z,21.22
2022-12-07T04:43:24.087Z,21.70
2022-12-07T04:45:53.651Z,21.88
2022-12-07T04:48:20.329Z,21.06
2022-12-07T04:50:47.579Z,22.17
2022-12-07T04:53:17.854Z,22.69
2022-12-07T04:55:45.580Z,21.67
2022-12-07T04:58:12.521Z,21.64
2022-12-07T05:00:39.761Z,21.64
2022-12-07T05:03:06.628Z,21.94
2022-12-07T05:05:33.961Z,22.16
2022-12-07T05:08:07.899Z,22.31
2022-12-07T05:10:34.621Z,23.59
2022-12-07T05:13:04.126Z,22.88
2022-12-07T05:15:34.455Z,23.32
2022-12-07T05:18:03.675Z,23.86
2022-12-07T05:20:33.785Z,22.87
2022-12-07T05:23:05.985Z,23.03
2022-12-07T05:25:34.724Z,23.52
2022-12-07T05:30:36.615Z,23.13
2022-12-07T05:33:04.105Z,22.57
2022-12-07T05:35:30.825Z,23.85
2022-12-07T05:40:42.409Z,23.31
2022-12-07T05:43:09.270Z,24.22
2022-12-07T05:48:09.907Z,25.60
2022-12-07T05:50:43.431Z,24.63
2022-12-07T05:53:12.122Z,23.98
2022-12-07T05:55:43.577Z,23.97
2022-12-07T05:58:10.605Z,24.09
2022-12-07T06:00:38.272Z,24.07
2022-12-07T06:03:05.188Z,24.75
2022-12-07T06:05:34.370Z,23.60
2022-12-07T06:08:05.708Z,23.94
2022-12-07T06:13:46.802Z,25.20
2022-12-07T06:16:15.891Z,24.47
2022-12-07T06:18:46.689Z,24.93
2022-12-07T06:21:14.155Z,24.78
2022-12-07T06:23:41.094Z,24.89
2022-12-07T06:26:13.048Z,25.95
2022-12-07T06:28:41.535Z,26.28
2022-12-07T06:31:14.791Z,24.75
2022-12-07T06:33:42.332Z,26.11
2022-12-07T06:36:09.220Z,26.05
2022-12-07T06:38:39.230Z,25.81
2022-12-07T06:41:05.925Z,26.46
2022-12-07T06:43:37.033Z,25.62
2022-12-07T06:46:06.232Z,25.33
2022-12-07T06:55:02.745Z,24.96
2022-12-07T06:57:30.985Z,25.21
2022-12-07T07:00:00.506Z,25.36
2022-12-07T07:02:30.660Z,25.59
2022-12-07T07:04:57.908Z,25.17
2022-12-07T07:07:24.835Z,25.52
2022-12-07T07:09:54.451Z,25.42
2022-12-07T07:12:23.429Z,24.97
2022-12-07T07:14:58.326Z,25.18
2022-12-07T07:17:25.623Z,24.87
2022-12-07T07:19:53.040Z,25.12
2022-12-07T07:22:22.399Z,25.20
2022-12-07T07:24:49.826Z,25.45
2022-12-07T07:27:19.829Z,24.83
2022-12-07T07:29:47.407Z,24.50
2022-12-07T07:32:15.365Z,25.61
2022-12-07T07:34:47.443Z,25.08
2022-12-07T07:37:20.271Z,24.78
2022-12-07T07:39:50.179Z,27.08
2022-12-07T07:42:17.027Z,24.91
2022-12-07T07:44:45.059Z,25.64
2022-12-07T07:47:13.935Z,24.24
2022-12-07T07:49:47.554Z,25.16
2022-12-07T07:52:15.161Z,25.98
2022-12-07T07:54:50.239Z,25.36
2022-12-07T07:57:25.660Z,25.83
2022-12-07T07:59:52.954Z,26.10
2022-12-07T08:02:20.013Z,26.14
2022-12-07T08:04:51.582Z,25.77
2022-12-07T08:07:21.653Z,25.92
2022-12-07T08:10:03.299Z,25.82
2022-12-07T08:12:31.476Z,26.29
2022-12-07T08:15:01.447Z,24.97
2022-12-07T08:17:30.714Z,25.42
2022-12-07T08:20:00.478Z,26.13
2022-12-07T08:22:30.468Z,25.05
2022-12-07T08:24:57.550Z,24.06
2022-12-07T08:27:26.351Z,23.65
2022-12-07T08:29:55.623Z,20.65
2022-12-07T08:32:22.542Z,18.20
2022-12-07T08:34:50.140Z,17.68
2022-12-07T08:37:26.178Z,16.69
2022-12-07T08:39:58.014Z,15.20
2022-12-07T08:42:26.706Z,15.59
2022-12-07T08:44:55.582Z,15.00
2022-12-07T08:47:30.617Z,15.57
2022-12-07T08:49:59.472Z,16.40
2022-12-07T08:52:27.688Z,15.94
2022-12-07T08:54:54.261Z,15.96
2022-12-07T08:57:20.971Z,16.64
2022-12-07T08:59:53.769Z,16.56
2022-12-07T09:02:24.265Z,17.28
2022-12-07T09:07:33.966Z,16.00
2022-12-07T09:10:02.814Z,16.65
2022-12-07T09:12:31.368Z,16.84
2022-12-07T09:15:00.076Z,15.36
2022-12-07T09:17:35.333Z,14.16
2022-12-07T09:20:04.856Z,12.97
2022-12-07T09:22:44.511Z,13.21
2022-12-07T09:25:33.754Z,11.87
2022-12-07T09:28:02.217Z,11.87
2022-12-07T09:31:21.119Z,11.35
2022-12-07T09:33:31.704Z,11.35
2022-12-07T09:38:58.853Z,11.71
2022-12-07T09:41:37.571Z,12.61
2022-12-07T09:50:48.607Z,16.30
2022-12-07T09:53:18.589Z,17.53
2022-12-07T09:55:45.621Z,17.86
2022-12-07T09:58:17.212Z,17.18
2022-12-07T10:00:48.172Z,16.48
2022-12-07T10:03:15.273Z,16.30
2022-12-07T10:08:32.012Z,15.37
2022-12-07T10:10:59.440Z,14.30
2022-12-07T10:13:28.437Z,12.90
2022-12-07T10:15:56.115Z,13.96
2022-12-07T10:18:27.484Z,12.68
2022-12-07T10:20:58.528Z,12.66
2022-12-07T10:23:25.575Z,12.10
2022-12-07T10:25:53.597Z,12.54
2022-12-07T10:28:21.461Z,12.79
2022-12-07T10:30:50.979Z,13.26
2022-12-07T10:33:18.288Z,13.01
2022-12-07T10:35:45.693Z,12.70
2022-12-07T10:38:15.643Z,13.76
2022-12-07T10:40:46.741Z,13.70
2022-12-07T10:43:14.770Z,13.97
2022-12-07T10:45:52.047Z,13.61
2022-12-07T10:48:33.050Z,13.62
2022-12-07T10:51:11.443Z,13.57
2022-12-07T10:53:38.899Z,13.80
2022-12-07T10:56:05.965Z,12.41
2022-12-07T10:58:35.196Z,13.31
2022-12-07T11:01:01.995Z,13.01
2022-12-07T11:03:33.607Z,13.50
2022-12-07T11:06:11.828Z,14.05
2022-12-07T11:08:39.002Z,13.29
2022-12-07T11:11:29.329Z,14.08
2022-12-07T11:16:43.900Z,13.59
2022-12-07T11:19:25.124Z,14.12
2022-12-07T11:21:57.960Z,12.29
2022-12-07T11:30:02.550Z,12.09
2022-12-07T11:32:43.020Z,12.33
2022-12-07T11:35:15.809Z,12.53
2022-12-07T11:37:45.003Z,12.88
2022-12-07T11:42:58.284Z,12.97
2022-12-07T11:45:37.431Z,12.75
2022-12-07T11:48:04.481Z,12.70
2022-12-07T11:50:35.910Z,13.37
2022-12-07T11:53:09.633Z,13.19
2022-12-07T11:55:36.362Z,13.19
2022-12-07T11:58:05.443Z,12.81
2022-12-07T12:00:39.780Z,13.32
2022-12-07T12:03:07.382Z,13.03
2022-12-07T12:05:51.087Z,13.32
2022-12-07T12:11:12.002Z,13.58
2022-12-07T12:16:34.627Z,14.20
2022-12-07T12:19:01.841Z,15.01
2022-12-07T12:21:30.141Z,14.60
2022-12-07T12:24:05.067Z,14.30
2022-12-07T12:26:38.687Z,15.28
2022-12-07T12:29:09.950Z,14.57
2022-12-07T12:31:37.390Z,13.71
2022-12-07T12:34:04.559Z,14.97
2022-12-07T12:36:34.238Z,15.87
2022-12-07T12:39:07.982Z,16.34
2022-12-07T12:41:38.441Z,16.28
2022-12-07T12:44:05.819Z,16.29
2022-12-07T12:46:49.408Z,16.32
2022-12-07T12:49:20.932Z,16.99
2022-12-07T12:51:51.835Z,16.81
2022-12-07T12:54:22.610Z,16.71
2022-12-07T12:56:50.469Z,16.42
2022-12-07T12:59:17.670Z,17.09
2022-12-07T13:01:49.057Z,16.41
2022-12-07T13:04:16.347Z,15.92
2022-12-07T13:06:44.239Z,15.95
2022-12-07T13:09:21.207Z,16.30
2022-12-07T13:12:03.602Z,16.52
2022-12-07T13:14:33.775Z,16.37
2022-12-07T13:17:01.811Z,16.03
2022-12-07T13:19:28.588Z,16.70
2022-12-07T13:21:56.177Z,17.30
2022-12-07T13:24:23.035Z,16.91
2022-12-07T13:26:51.673Z,16.35
2022-12-07T13:29:29.364Z,16.72
2022-12-07T13:31:59.676Z,16.30
2022-12-07T13:34:29.367Z,15.65
2022-12-07T13:39:54.310Z,16.01
2022-12-07T13:42:24.522Z,15.85
2022-12-07T13:44:52.855Z,16.82
2022-12-07T13:47:29.060Z,16.79
2022-12-07T13:49:58.332Z,16.32
2022-12-07T13:52:32.169Z,15.37
2022-12-07T13:55:03.637Z,15.19
2022-12-07T13:57:36.079Z,15.87
2022-12-07T14:02:55.299Z,15.59
2022-12-07T14:05:27.360Z,16.37
2022-12-07T14:07:56.374Z,15.37
2022-12-07T14:10:25.996Z,15.88
2022-12-07T14:12:53.792Z,15.77
2022-12-07T14:15:21.158Z,15.63
2022-12-07T14:17:53.540Z,16.55
2022-12-07T14:26:36.110Z,17.14
2022-12-07T14:29:12.491Z,17.04
2022-12-07T14:34:28.860Z,16.48
2022-12-07T14:37:01.017Z,17.20
2022-12-07T14:39:32.366Z,16.20
2022-12-07T14:42:06.705Z,15.67
2022-12-07T14:44:40.178Z,15.84
2022-12-07T14:50:03.171Z,16.74
2022-12-07T14:55:22.590Z,16.56
2022-12-07T15:00:47.553Z,17.82
2022-12-07T15:03:23.251Z,17.45
2022-12-07T15:06:09.628Z,18.24
2022-12-07T15:14:53.208Z,17.12
2022-12-07T15:17:29.907Z,17.27
2022-12-07T15:19:59.273Z,16.87
2022-12-07T15:22:33.620Z,17.28
2022-12-07T15:25:14.891Z,17.82
2022-12-07T15:27:52.956Z,18.25
2022-12-07T15:30:20.938Z,17.10
2022-12-07T15:32:51.800Z,16.65
2022-12-07T15:35:22.645Z,16.50
2022-12-07T15:37:51.707Z,16.22
2022-12-07T15:40:25.627Z,16.30
2022-12-07T15:43:00.345Z,16.07
2022-12-07T15:54:38.102Z,16.70
2022-12-07T15:57:25.175Z,15.50
2022-12-07T15:59:55.234Z,15.73
2022-12-07T16:12:19.787Z,16.05
2022-12-07T16:14:59.140Z,15.22
2022-12-07T16:20:23.427Z,14.75
2022-12-07T16:22:55.777Z,14.69
2022-12-07T16:31:36.006Z,14.22
2022-12-07T16:34:03.040Z,14.75
2022-12-07T17:41:43.680Z,12.11
2022-12-07T17:44:15.464Z,12.04
2022-12-07T17:46:49.914Z,11.56
2022-12-07T17:49:18.762Z,12.05
2022-12-07T17:54:30.857Z,12.78
2022-12-07T17:57:03.230Z,13.60
2022-12-07T17:59:30.509Z,13.28
2022-12-07T18:02:00.443Z,12.29
2022-12-07T18:04:28.327Z,11.59
2022-12-07T18:07:00.551Z,11.98
2022-12-07T18:09:28.497Z,12.44
2022-12-07T18:12:09.393Z,12.73
2022-12-07T18:17:17.815Z,13.47
2022-12-07T18:22:37.215Z,14.22
2022-12-07T18:25:16.135Z,13.77
2022-12-07T18:27:45.105Z,14.64
2022-12-07T18:30:15.342Z,15.99
2022-12-07T18:32:50.804Z,16.61
2022-12-07T18:35:19.266Z,16.19
2022-12-07T18:37:46.220Z,14.89
2022-12-07T18:40:17.652Z,14.96
2022-12-07T18:42:53.405Z,13.89
2022-12-07T18:45:32.100Z,13.63
2022-12-07T18:48:10.792Z,13.95
2022-12-07T18:50:47.082Z,13.70
2022-12-07T18:53:18.568Z,13.04
2022-12-07T18:58:56.433Z,13.43
2022-12-07T19:01:23.810Z,13.19
2022-12-07T19:06:37.317Z,14.13
2022-12-07T19:09:06.102Z,15.10
2022-12-07T19:11:37.097Z,15.31
2022-12-07T19:17:19.681Z,17.30
2022-12-07T19:19:46.808Z,17.21
2022-12-07T19:22:24.060Z,17.46
2022-12-07T19:25:00.993Z,16.31
2022-12-07T19:27:30.385Z,18.04
2022-12-07T19:36:15.634Z,18.84
2022-12-07T19:38:47.734Z,19.08
2022-12-07T20:06:50.129Z,54.03
2022-12-07T20:18:59.845Z,17.83
2022-12-07T20:21:28.253Z,16.83
2022-12-07T20:23:59.387Z,16.66
2022-12-07T20:26:51.228Z,15.21
2022-12-07T20:29:45.492Z,14.44
2022-12-07T20:32:13.428Z,17.01
2022-12-07T20:34:51.197Z,16.51
2022-12-07T21:08:34.071Z,15.55
2022-12-07T21:11:03.002Z,14.68
2022-12-07T21:13:33.287Z,14.56
2022-12-07T21:32:09.267Z,16.25
2022-12-07T21:46:47.751Z,14.34
2022-12-07T21:49:18.463Z,15.27
2022-12-07T21:51:47.320Z,14.94
2022-12-07T21:54:33.047Z,14.41
2022-12-07T21:57:01.119Z,14.55
2022-12-07T21:59:30.121Z,14.48
2022-12-07T22:02:17.615Z,14.53
2022-12-07T22:04:44.506Z,14.47
2022-12-07T22:07:11.445Z,14.13
2022-12-07T22:18:26.979Z,13.25
2022-12-07T22:26:53.545Z,13.82
2022-12-07T22:35:28.791Z,14.04
2022-12-07T22:40:42.140Z,14.04
2022-12-07T22:43:18.974Z,15.14
2022-12-07T22:48:47.758Z,15.98
2022-12-07T22:51:14.447Z,15.43
2022-12-07T22:53:42.916Z,14.93
2022-12-07T22:56:10.147Z,14.72
2022-12-07T22:58:36.896Z,14.55
2022-12-07T23:01:03.534Z,15.30
2022-12-07T23:03:30.496Z,14.87
2022-12-07T23:05:58.173Z,15.22
2022-12-07T23:08:27.431Z,15.74
2022-12-07T23:10:56.117Z,15.20
2022-12-07T23:13:34.340Z,15.46
2022-12-07T23:16:01.323Z,15.05
2022-12-07T23:18:30.212Z,15.47
2022-12-07T23:20:57.664Z,15.32
2022-12-07T23:23:24.453Z,15.45
2022-12-07T23:25:53.739Z,14.93
2022-12-07T23:28:20.598Z,16.03
2022-12-07T23:30:48.281Z,16.06
2022-12-07T23:33:18.328Z,16.22
2022-12-07T23:35:52.530Z,15.57
2022-12-07T23:38:19.986Z,15.58
2022-12-07T23:40:46.838Z,15.83
2022-12-07T23:43:14.682Z,16.25
2022-12-07T23:45:43.378Z,16.13
2022-12-07T23:48:10.627Z,16.03
2022-12-07T23:50:40.325Z,16.03
2022-12-07T23:53:06.984Z,16.16
2022-12-07T23:55:34.086Z,16.72
2022-12-07T23:58:02.637Z,17.22
